createdAt,value
2023-05-17T00:00:52.140Z,98001.56
2023-05-17T00:03:19.850Z,97997.41
2023-05-17T00:05:47.404Z,97990.22
2023-05-17T00:08:15.014Z,97996.56
2023-05-17T00:10:43.319Z,97998.72
2023-05-17T00:13:11.095Z,98002.03
2023-05-17T00:15:38.660Z,98004.50
2023-05-17T00:18:06.310Z,98000.88
2023-05-17T00:20:34.657Z,98001.69
2023-05-17T00:23:02.973Z,98007.38
2023-05-17T00:25:30.771Z,98009.34
2023-05-17T00:27:58.494Z,98008.00
2023-05-17T00:30:26.051Z,98009.69
2023-05-17T00:32:53.796Z,98014.50
2023-05-17T00:35:21.668Z,98013.25
2023-05-17T00:37:49.311Z,98014.06
2023-05-17T00:40:16.872Z,98022.56
2023-05-17T00:42:45.133Z,98022.72
2023-05-17T00:45:13.062Z,98018.22
2023-05-17T00:47:41.494Z,98029.03
2023-05-17T00:50:10.223Z,98028.53
2023-05-17T00:52:38.976Z,98029.50
2023-05-17T00:55:07.189Z,98034.84
2023-05-17T00:57:35.622Z,98025.88
2023-05-17T01:00:04.816Z,98029.66
2023-05-17T01:02:32.473Z,98018.81
2023-05-17T01:05:00.908Z,98026.81
2023-05-17T01:07:29.096Z,98026.97
2023-05-17T01:09:57.287Z,98027.13
2023-05-17T01:12:49.049Z,98035.75
2023-05-17T01:15:33.290Z,98035.22
2023-05-17T01:18:23.945Z,98044.84
2023-05-17T01:20:56.123Z,98040.47
2023-05-17T01:23:54.382Z,98043.41
2023-05-17T01:26:39.427Z,98048.84
2023-05-17T01:29:09.700Z,98041.38
2023-05-17T01:31:38.977Z,98047.41
2023-05-17T01:34:10.633Z,98045.34
2023-05-17T01:36:38.492Z,98047.00
2023-05-17T01:39:06.255Z,98048.69
2023-05-17T01:41:42.311Z,98051.22
2023-05-17T01:44:35.619Z,98051.31
2023-05-17T01:47:15.357Z,98057.31
2023-05-17T01:49:52.743Z,98056.47
2023-05-17T01:52:48.167Z,98057.16
2023-05-17T01:55:32.026Z,98059.84
2023-05-17T01:58:01.696Z,98062.94
2023-05-17T02:00:30.106Z,98055.72
2023-05-17T02:02:58.573Z,98053.88
2023-05-17T02:05:26.345Z,98053.00
2023-05-17T02:07:53.986Z,98064.63
2023-05-17T02:10:22.337Z,98065.47
2023-05-17T02:12:49.876Z,98068.28
2023-05-17T02:15:17.512Z,98068.44
2023-05-17T02:17:45.888Z,98064.13
2023-05-17T02:20:15.505Z,98066.41
2023-05-17T02:22:43.287Z,98068.38
2023-05-17T02:25:11.202Z,98067.69
2023-05-17T02:27:41.334Z,98069.81
2023-05-17T02:30:09.630Z,98067.97
2023-05-17T02:32:39.007Z,98079.63
2023-05-17T02:35:08.517Z,98075.28
2023-05-17T02:37:36.601Z,98083.41
2023-05-17T02:40:09.819Z,98077.28
2023-05-17T02:42:38.127Z,98079.09
2023-05-17T02:45:06.571Z,98077.19
2023-05-17T02:47:34.202Z,98074.97
2023-05-17T02:50:01.818Z,98083.13
2023-05-17T02:52:30.322Z,98076.72
2023-05-17T02:54:58.110Z,98073.22
2023-05-17T02:57:25.811Z,98076.72
2023-05-17T02:59:54.148Z,98078.41
2023-05-17T03:02:21.826Z,98080.97
2023-05-17T03:04:49.536Z,98073.44
2023-05-17T03:07:18.032Z,98076.84
2023-05-17T03:10:11.111Z,98076.25
2023-05-17T03:12:43.333Z,98090.41
2023-05-17T03:15:11.447Z,98080.06
2023-05-17T03:17:39.114Z,98089.34
2023-05-17T03:20:08.792Z,98094.38
2023-05-17T03:22:37.052Z,98088.53
2023-05-17T03:25:05.834Z,98091.50
2023-05-17T03:27:34.682Z,98091.22
2023-05-17T03:30:02.623Z,98093.06
2023-05-17T03:32:32.328Z,98098.81
2023-05-17T03:35:00.461Z,98094.38
2023-05-17T03:37:29.038Z,98098.03
2023-05-17T03:39:56.722Z,98105.31
2023-05-17T03:42:24.993Z,98104.91
2023-05-17T03:44:52.641Z,98108.13
2023-05-17T03:47:23.884Z,98110.09
2023-05-17T03:49:51.702Z,98106.59
2023-05-17T03:52:19.315Z,98115.41
2023-05-17T03:54:48.240Z,98113.75
2023-05-17T03:57:17.250Z,98111.34
2023-05-17T03:59:45.872Z,98111.09
2023-05-17T04:02:16.577Z,98115.41
2023-05-17T04:04:51.442Z,98115.41
2023-05-17T04:07:19.908Z,98122.81
2023-05-17T04:09:47.699Z,98128.16
2023-05-17T04:12:16.387Z,98140.31
2023-05-17T04:14:44.347Z,98137.19
2023-05-17T04:17:12.611Z,98139.59
2023-05-17T04:19:41.853Z,98135.94
2023-05-17T04:22:09.527Z,98140.72
2023-05-17T04:24:37.615Z,98152.06
2023-05-17T04:27:07.054Z,98142.94
2023-05-17T04:29:35.623Z,98148.13
2023-05-17T04:32:03.446Z,98152.44
2023-05-17T04:34:32.137Z,98152.31
2023-05-17T04:37:01.288Z,98153.81
2023-05-17T04:39:30.948Z,98161.06
2023-05-17T04:41:59.488Z,98153.78
2023-05-17T04:44:27.542Z,98155.47
2023-05-17T04:46:56.453Z,98162.03
2023-05-17T04:49:25.109Z,98166.38
2023-05-17T04:51:53.004Z,98168.06
2023-05-17T04:54:20.967Z,98162.59
2023-05-17T04:56:48.963Z,98168.75
2023-05-17T04:59:24.399Z,98176.03
2023-05-17T05:01:52.061Z,98183.75
2023-05-17T05:04:19.942Z,98180.78
2023-05-17T05:06:49.656Z,98179.09
2023-05-17T05:09:17.846Z,98186.66
2023-05-17T05:11:46.285Z,98195.19
2023-05-17T05:14:14.165Z,98190.41
2023-05-17T05:16:42.400Z,98195.44
2023-05-17T05:19:10.520Z,98203.84
2023-05-17T05:21:38.847Z,98204.00
2023-05-17T05:24:09.066Z,98207.78
2023-05-17T05:26:37.136Z,98206.09
2023-05-17T05:29:06.298Z,98214.50
2023-05-17T05:31:34.441Z,98217.84
2023-05-17T05:34:03.696Z,98222.16
2023-05-17T05:36:31.516Z,98227.94
2023-05-17T05:39:00.913Z,98223.75
2023-05-17T05:41:31.268Z,98233.72
2023-05-17T05:43:58.890Z,98226.41
2023-05-17T05:46:26.949Z,98232.81
2023-05-17T05:48:55.360Z,98228.03
2023-05-17T05:51:23.123Z,98235.31
2023-05-17T05:53:52.065Z,98235.63
2023-05-17T05:56:20.814Z,98234.56
2023-05-17T05:58:48.624Z,98238.78
2023-05-17T06:01:16.774Z,98241.28
2023-05-17T06:03:44.579Z,98237.91
2023-05-17T06:06:12.777Z,98249.25
2023-05-17T06:08:40.490Z,98248.69
2023-05-17T06:11:08.068Z,98251.75
2023-05-17T06:13:35.616Z,98251.59
2023-05-17T06:16:03.555Z,98250.44
2023-05-17T06:18:31.205Z,98252.00
2023-05-17T06:20:59.004Z,98259.94
2023-05-17T06:23:26.797Z,98261.31
2023-05-17T06:25:54.332Z,98268.03
2023-05-17T06:28:21.852Z,98262.25
2023-05-17T06:30:49.426Z,98271.31
2023-05-17T06:33:17.071Z,98278.44
2023-05-17T06:35:55.597Z,98275.56
2023-05-17T06:38:24.281Z,98271.81
2023-05-17T06:40:54.475Z,98280.22
2023-05-17T06:43:22.437Z,98277.47
2023-05-17T06:45:50.948Z,98280.97
2023-05-17T06:48:18.636Z,98280.06
2023-05-17T06:50:46.383Z,98284.53
2023-05-17T06:53:13.954Z,98279.06
2023-05-17T06:55:41.745Z,98281.72
2023-05-17T06:58:09.601Z,98282.19
2023-05-17T07:00:37.228Z,98285.25
2023-05-17T07:03:05.047Z,98280.97
2023-05-17T07:05:33.184Z,98282.25
2023-05-17T07:08:01.804Z,98282.88
2023-05-17T07:10:29.544Z,98285.66
2023-05-17T07:12:57.113Z,98293.72
2023-05-17T07:15:25.312Z,98300.09
2023-05-17T07:17:53.151Z,98288.06
2023-05-17T07:20:21.351Z,98293.28
2023-05-17T07:22:50.270Z,98296.31
2023-05-17T07:25:18.933Z,98292.91
2023-05-17T07:27:47.077Z,98294.41
2023-05-17T07:30:15.546Z,98290.09
2023-05-17T07:32:43.158Z,98295.19
2023-05-17T07:35:10.875Z,98299.72
2023-05-17T07:37:38.411Z,98297.56
2023-05-17T07:40:07.190Z,98291.38
2023-05-17T07:42:34.794Z,98291.91
2023-05-17T07:45:02.812Z,98295.31
2023-05-17T07:47:31.010Z,98300.22
2023-05-17T07:49:58.596Z,98300.38
2023-05-17T07:52:26.129Z,98302.59
2023-05-17T07:54:53.666Z,98302.22
2023-05-17T07:57:21.217Z,98303.06
2023-05-17T07:59:48.755Z,98303.81
2023-05-17T08:02:18.835Z,98301.09
2023-05-17T08:04:46.781Z,98301.09
2023-05-17T08:07:16.675Z,98298.41
2023-05-17T08:09:45.516Z,98294.16
2023-05-17T08:12:13.241Z,98297.41
2023-05-17T08:14:40.814Z,98292.09
2023-05-17T08:17:08.369Z,98292.75
2023-05-17T08:19:36.283Z,98294.78
2023-05-17T08:22:04.191Z,98288.53
2023-05-17T08:24:31.715Z,98291.78
2023-05-17T08:26:59.452Z,98290.88
2023-05-17T08:29:27.173Z,98297.81
2023-05-17T08:31:55.135Z,98291.59
2023-05-17T08:34:23.063Z,98280.34
2023-05-17T08:36:50.685Z,98294.47
2023-05-17T08:39:18.223Z,98294.50
2023-05-17T08:41:48.395Z,98290.50
2023-05-17T08:44:17.155Z,98292.03
2023-05-17T08:46:52.297Z,98295.22
2023-05-17T08:49:25.750Z,98296.72
2023-05-17T08:51:59.539Z,98295.53
2023-05-17T08:54:27.841Z,98288.66
2023-05-17T08:57:00.395Z,98294.53
2023-05-17T08:59:33.977Z,98291.69
2023-05-17T09:02:02.706Z,98287.31
2023-05-17T09:04:31.937Z,98286.66
2023-05-17T09:07:00.134Z,98289.69
2023-05-17T09:09:27.950Z,98287.00
2023-05-17T09:11:55.602Z,98287.16
2023-05-17T09:14:23.490Z,98288.50
2023-05-17T09:16:58.228Z,98290.34
2023-05-17T09:19:26.228Z,98287.72
2023-05-17T09:21:59.943Z,98291.88
2023-05-17T09:24:31.609Z,98299.09
2023-05-17T09:27:04.226Z,98292.91
2023-05-17T09:29:33.302Z,98289.06
2023-05-17T09:32:14.837Z,98289.84
2023-05-17T09:34:45.710Z,98282.81
2023-05-17T09:37:16.804Z,98283.66
2023-05-17T09:39:46.739Z,98293.53
2023-05-17T09:42:16.675Z,98283.94
2023-05-17T09:44:57.674Z,98288.56
2023-05-17T09:47:30.319Z,98290.09
2023-05-17T09:50:03.152Z,98290.91
2023-05-17T09:52:31.927Z,98300.44
2023-05-17T09:55:00.859Z,98299.38
2023-05-17T09:57:38.979Z,98294.56
2023-05-17T10:00:12.382Z,98290.22
2023-05-17T10:02:47.905Z,98293.97
2023-05-17T10:05:17.082Z,98291.53
2023-05-17T10:07:46.205Z,98295.09
2023-05-17T10:10:14.285Z,98294.47
2023-05-17T10:12:42.545Z,98293.22
2023-05-17T10:15:12.684Z,98290.53
2023-05-17T10:17:43.907Z,98288.50
2023-05-17T10:20:15.627Z,98293.97
2023-05-17T10:22:43.753Z,98294.34
2023-05-17T10:25:12.612Z,98298.53
2023-05-17T10:27:41.892Z,98298.09
2023-05-17T10:30:11.528Z,98303.94
2023-05-17T10:32:39.862Z,98293.94
2023-05-17T10:35:12.000Z,98298.84
2023-05-17T10:37:41.706Z,98299.66
2023-05-17T10:40:14.079Z,98300.88
2023-05-17T10:42:52.246Z,98306.09
2023-05-17T10:45:25.660Z,98306.03
2023-05-17T10:47:54.012Z,98306.03
2023-05-17T10:50:24.018Z,98313.06
2023-05-17T10:52:53.442Z,98318.63
2023-05-17T10:55:24.982Z,98314.63
2023-05-17T10:58:21.253Z,98304.72
2023-05-17T11:00:55.772Z,98321.72
2023-05-17T11:03:30.601Z,98308.28
2023-05-17T11:06:24.373Z,98313.59
2023-05-17T11:09:16.693Z,98309.59
2023-05-17T11:12:03.965Z,98315.38
2023-05-17T11:14:48.339Z,98311.50
2023-05-17T11:17:27.654Z,98309.53
2023-05-17T11:19:55.326Z,98308.81
2023-05-17T11:22:27.597Z,98314.88
2023-05-17T11:24:58.142Z,98304.84
2023-05-17T11:27:29.586Z,98307.50
2023-05-17T11:29:58.709Z,98302.34
2023-05-17T11:32:29.580Z,98304.53
2023-05-17T11:35:01.194Z,98309.88
2023-05-17T11:37:31.118Z,98305.69
2023-05-17T11:40:07.930Z,98300.19
2023-05-17T11:42:38.384Z,98305.69
2023-05-17T11:45:07.166Z,98301.84
2023-05-17T11:47:39.522Z,98298.09
2023-05-17T11:50:07.844Z,98303.00
2023-05-17T11:52:35.466Z,98297.97
2023-05-17T11:55:03.912Z,98289.06
2023-05-17T11:57:32.430Z,98296.78
2023-05-17T12:00:07.912Z,98300.88
2023-05-17T12:02:41.070Z,98297.34
2023-05-17T12:05:09.453Z,98293.59
2023-05-17T12:07:37.499Z,98294.25
2023-05-17T12:10:06.499Z,98303.06
2023-05-17T12:12:34.089Z,98299.00
2023-05-17T12:15:01.973Z,98288.56
2023-05-17T12:17:37.096Z,98298.69
2023-05-17T12:20:11.512Z,98293.41
2023-05-17T12:22:56.066Z,98287.84
2023-05-17T12:25:29.482Z,98287.94
2023-05-17T12:28:18.925Z,98288.09
2023-05-17T12:30:46.940Z,98285.06
2023-05-17T12:33:14.900Z,98291.72
2023-05-17T12:35:42.813Z,98291.34
2023-05-17T12:38:11.472Z,98285.84
2023-05-17T12:40:43.249Z,98285.47
2023-05-17T12:43:11.203Z,98287.78
2023-05-17T12:45:42.061Z,98279.69
2023-05-17T12:48:09.640Z,98284.91
2023-05-17T12:50:37.247Z,98271.44
2023-05-17T12:53:09.154Z,98274.66
2023-05-17T12:55:38.135Z,98284.09
2023-05-17T12:58:05.804Z,98286.13
2023-05-17T13:00:33.393Z,98268.75
2023-05-17T13:03:01.261Z,98263.41
2023-05-17T13:05:28.976Z,98265.50
2023-05-17T13:07:56.482Z,98271.78
2023-05-17T13:10:28.824Z,98270.50
2023-05-17T13:12:58.773Z,98265.63
2023-05-17T13:15:32.314Z,98268.56
2023-05-17T13:18:12.125Z,98274.25
2023-05-17T13:20:40.071Z,98278.34
2023-05-17T13:23:07.679Z,98281.03
2023-05-17T13:25:36.723Z,98278.16
2023-05-17T13:28:04.408Z,98273.88
2023-05-17T13:30:32.081Z,98268.16
2023-05-17T13:32:59.923Z,98277.63
2023-05-17T13:35:27.528Z,98265.81
2023-05-17T13:37:55.194Z,98267.13
2023-05-17T13:40:22.993Z,98257.75
2023-05-17T13:42:50.573Z,98263.94
2023-05-17T13:45:18.102Z,98263.81
2023-05-17T13:47:45.831Z,98264.31
2023-05-17T13:50:17.092Z,98262.56
2023-05-17T13:52:44.685Z,98267.56
2023-05-17T13:55:12.289Z,98261.66
2023-05-17T13:57:39.879Z,98266.66
2023-05-17T14:00:08.390Z,98260.72
2023-05-17T14:02:37.090Z,98255.88
2023-05-17T14:05:05.391Z,98261.44
2023-05-17T14:07:33.055Z,98271.25
2023-05-17T14:10:00.963Z,98273.94
2023-05-17T14:12:28.939Z,98277.06
2023-05-17T14:14:56.635Z,98272.19
2023-05-17T14:17:24.281Z,98280.50
2023-05-17T14:19:52.539Z,98280.69
2023-05-17T14:22:20.089Z,98280.13
2023-05-17T14:24:47.660Z,98275.69
2023-05-17T14:27:15.190Z,98276.44
2023-05-17T14:29:42.748Z,98270.16
2023-05-17T14:32:12.794Z,98269.41
2023-05-17T14:34:40.554Z,98275.91
2023-05-17T14:37:08.575Z,98267.16
2023-05-17T14:39:36.149Z,98272.94
2023-05-17T14:42:03.991Z,98268.28
2023-05-17T14:44:31.594Z,98272.41
2023-05-17T14:46:59.207Z,98269.44
2023-05-17T14:49:26.721Z,98273.53
2023-05-17T14:51:54.237Z,98266.94
2023-05-17T14:54:22.045Z,98257.97
2023-05-17T14:56:49.630Z,98254.56
2023-05-17T14:59:17.202Z,98256.44
2023-05-17T15:01:44.744Z,98257.88
2023-05-17T15:04:13.123Z,98261.53
2023-05-17T15:06:41.591Z,98256.00
2023-05-17T15:09:14.091Z,98256.41
2023-05-17T15:11:41.981Z,98259.78
2023-05-17T15:14:09.866Z,98254.44
2023-05-17T15:16:38.265Z,98259.84
2023-05-17T15:19:06.488Z,98261.03
2023-05-17T15:21:34.120Z,98263.09
2023-05-17T15:24:01.713Z,98261.63
2023-05-17T15:26:29.251Z,98262.59
2023-05-17T15:28:57.489Z,98259.25
2023-05-17T15:31:25.021Z,98250.19
2023-05-17T15:33:52.732Z,98248.03
2023-05-17T15:36:20.439Z,98257.72
2023-05-17T15:38:48.003Z,98250.53
2023-05-17T15:41:17.632Z,98249.38
2023-05-17T15:43:45.516Z,98250.69
2023-05-17T15:46:13.151Z,98253.41
2023-05-17T15:48:41.007Z,98250.50
2023-05-17T15:51:08.723Z,98249.19
2023-05-17T15:53:36.241Z,98255.22
2023-05-17T15:56:04.168Z,98255.66
2023-05-17T15:58:33.312Z,98256.88
2023-05-17T16:01:05.568Z,98259.63
2023-05-17T16:03:33.873Z,98256.28
2023-05-17T16:06:01.653Z,98259.84
2023-05-17T16:08:29.227Z,98257.56
2023-05-17T16:10:56.769Z,98244.03
2023-05-17T16:13:24.785Z,98249.63
2023-05-17T16:15:52.490Z,98252.97
2023-05-17T16:18:20.904Z,98237.13
2023-05-17T16:21:04.036Z,98240.63
2023-05-17T16:23:31.686Z,98236.66
2023-05-17T16:25:59.421Z,98240.38
2023-05-17T16:28:27.029Z,98237.69
2023-05-17T16:30:54.685Z,98237.81
2023-05-17T16:33:22.400Z,98242.59
2023-05-17T16:35:50.043Z,98235.94
2023-05-17T16:38:17.621Z,98230.09
2023-05-17T16:40:45.212Z,98238.59
2023-05-17T16:43:15.898Z,98230.47
2023-05-17T16:45:44.849Z,98229.22
2023-05-17T16:48:14.152Z,98238.72
2023-05-17T16:50:42.239Z,98233.94
2023-05-17T16:53:09.875Z,98232.47
2023-05-17T16:55:37.488Z,98232.84
2023-05-17T16:58:05.972Z,98227.22
2023-05-17T17:00:34.128Z,98229.25
2023-05-17T17:03:01.850Z,98227.59
2023-05-17T17:05:29.481Z,98229.69
2023-05-17T17:07:57.577Z,98232.19
2023-05-17T17:10:25.154Z,98228.91
2023-05-17T17:12:52.723Z,98228.28
2023-05-17T17:15:20.668Z,98224.38
2023-05-17T17:17:48.281Z,98222.31
2023-05-17T17:20:15.914Z,98229.16
2023-05-17T17:22:43.474Z,98230.00
2023-05-17T17:25:11.301Z,98237.44
2023-05-17T17:27:38.923Z,98231.63
2023-05-17T17:30:07.595Z,98236.75
2023-05-17T17:32:35.227Z,98232.19
2023-05-17T17:35:03.207Z,98232.13
2023-05-17T17:37:30.830Z,98240.38
2023-05-17T17:39:58.458Z,98234.09
2023-05-17T17:42:26.072Z,98235.50
2023-05-17T17:44:54.636Z,98236.03
2023-05-17T17:47:22.427Z,98231.81
2023-05-17T17:49:50.306Z,98240.22
2023-05-17T17:52:17.884Z,98244.34
2023-05-17T17:54:46.212Z,98241.38
2023-05-17T17:57:14.093Z,98240.72
2023-05-17T17:59:41.624Z,98241.25
2023-05-17T18:02:09.180Z,98238.69
2023-05-17T18:04:36.834Z,98236.31
2023-05-17T18:07:04.498Z,98245.16
2023-05-17T18:09:32.121Z,98251.13
2023-05-17T18:11:59.669Z,98241.31
2023-05-17T18:14:27.200Z,98240.59
2023-05-17T18:16:54.852Z,98243.22
2023-05-17T18:19:22.575Z,98240.44
2023-05-17T18:21:50.689Z,98236.00
2023-05-17T18:24:18.367Z,98242.97
2023-05-17T18:26:45.907Z,98244.94
2023-05-17T18:29:13.469Z,98245.22
2023-05-17T18:31:41.644Z,98239.09
2023-05-17T18:34:09.324Z,98243.56
2023-05-17T18:36:36.855Z,98249.69
2023-05-17T18:39:05.583Z,98251.63
2023-05-17T18:41:33.116Z,98248.19
2023-05-17T18:44:02.697Z,98251.41
2023-05-17T18:46:30.342Z,98251.34
2023-05-17T18:48:58.112Z,98256.41
2023-05-17T18:51:25.758Z,98251.59
2023-05-17T18:53:53.714Z,98255.00
2023-05-17T18:56:23.356Z,98254.25
2023-05-17T18:58:52.891Z,98262.00
2023-05-17T19:01:21.112Z,98255.50
2023-05-17T19:03:51.392Z,98258.41
2023-05-17T19:06:19.640Z,98257.94
2023-05-17T19:08:49.546Z,98265.69
2023-05-17T19:11:18.221Z,98268.06
2023-05-17T19:13:45.921Z,98270.47
2023-05-17T19:16:15.492Z,98269.16
2023-05-17T19:18:43.247Z,98271.19
2023-05-17T19:21:11.844Z,98266.53
2023-05-17T19:23:39.479Z,98274.09
2023-05-17T19:26:07.137Z,98272.09
2023-05-17T19:28:35.798Z,98276.53
2023-05-17T19:31:04.493Z,98274.34
2023-05-17T19:33:33.924Z,98283.78
2023-05-17T19:36:01.611Z,98278.28
2023-05-17T19:38:29.295Z,98283.34
2023-05-17T19:40:56.838Z,98285.25
2023-05-17T19:43:25.248Z,98282.56
2023-05-17T19:45:53.093Z,98283.44
2023-05-17T19:48:20.760Z,98284.16
2023-05-17T19:50:48.678Z,98281.84
2023-05-17T19:53:16.210Z,98286.88
2023-05-17T19:55:43.824Z,98275.81
2023-05-17T19:58:11.503Z,98280.06
2023-05-17T20:00:39.108Z,98284.28
2023-05-17T20:03:06.785Z,98278.59
2023-05-17T20:05:34.418Z,98276.59
2023-05-17T20:08:06.475Z,98288.00
2023-05-17T20:10:34.603Z,98277.28
2023-05-17T20:13:02.375Z,98281.13
2023-05-17T20:15:29.961Z,98287.84
2023-05-17T20:17:58.213Z,98286.00
2023-05-17T20:20:26.213Z,98287.69
2023-05-17T20:22:53.758Z,98299.91
2023-05-17T20:25:21.741Z,98295.38
2023-05-17T20:27:49.315Z,98289.88
2023-05-17T20:30:16.908Z,98289.53
2023-05-17T20:32:44.524Z,98285.88
2023-05-17T20:35:12.097Z,98286.38
2023-05-17T20:37:39.679Z,98283.19
2023-05-17T20:40:09.095Z,98283.53
2023-05-17T20:42:37.618Z,98290.22
2023-05-17T20:45:06.027Z,98278.50
2023-05-17T20:47:33.729Z,98281.19
2023-05-17T20:50:01.554Z,98282.84
2023-05-17T20:52:38.975Z,98285.81
2023-05-17T20:55:09.365Z,98284.34
2023-05-17T20:57:37.028Z,98288.19
2023-05-17T21:00:08.505Z,98282.47
2023-05-17T21:02:40.637Z,98282.97
2023-05-17T21:05:09.081Z,98288.66
2023-05-17T21:07:39.908Z,98280.25
2023-05-17T21:10:09.293Z,98286.28
2023-05-17T21:12:36.808Z,98289.56
2023-05-17T21:15:16.417Z,98282.06
2023-05-17T21:17:52.480Z,98292.22
2023-05-17T21:20:21.453Z,98278.50
2023-05-17T21:22:50.590Z,98281.50
2023-05-17T21:25:18.243Z,98281.81
2023-05-17T21:27:45.987Z,98285.81
2023-05-17T21:30:13.560Z,98288.31
2023-05-17T21:32:41.576Z,98280.09
2023-05-17T21:35:09.344Z,98283.25
2023-05-17T21:37:39.871Z,98283.72
2023-05-17T21:40:08.822Z,98275.88
2023-05-17T21:42:36.434Z,98273.34
2023-05-17T21:45:04.571Z,98277.34
2023-05-17T21:47:32.400Z,98273.00
2023-05-17T21:50:00.232Z,98268.97
2023-05-17T21:52:27.858Z,98268.44
2023-05-17T21:54:55.460Z,98259.06
2023-05-17T21:57:23.110Z,98262.72
2023-05-17T21:59:51.273Z,98272.59
2023-05-17T22:02:19.108Z,98272.91
2023-05-17T22:04:46.888Z,98275.06
2023-05-17T22:07:14.452Z,98276.38
2023-05-17T22:09:41.986Z,98271.88
2023-05-17T22:12:12.093Z,98280.19
2023-05-17T22:14:44.503Z,98268.28
2023-05-17T22:17:12.170Z,98268.47
2023-05-17T22:19:41.572Z,98268.78
2023-05-17T22:22:09.325Z,98273.06
2023-05-17T22:24:37.674Z,98264.69
2023-05-17T22:27:05.644Z,98269.50
2023-05-17T22:29:33.250Z,98267.13
2023-05-17T22:32:00.897Z,98266.63
2023-05-17T22:34:29.127Z,98267.09
2023-05-17T22:36:57.243Z,98262.38
2023-05-17T22:39:24.823Z,98277.84
2023-05-17T22:41:52.596Z,98273.50
2023-05-17T22:44:21.903Z,98279.84
2023-05-17T22:46:49.841Z,98281.16
2023-05-17T22:49:18.407Z,98280.63
2023-05-17T22:51:46.751Z,98274.03
2023-05-17T22:54:14.291Z,98276.00
2023-05-17T22:56:41.877Z,98275.47
2023-05-17T22:59:09.453Z,98276.50
2023-05-17T23:01:37.091Z,98278.63
2023-05-17T23:04:04.911Z,98281.44
2023-05-17T23:06:34.031Z,98282.41
2023-05-17T23:09:05.103Z,98288.59
2023-05-17T23:11:34.769Z,98278.09
2023-05-17T23:14:02.351Z,98273.91
2023-05-17T23:16:29.911Z,98288.06
2023-05-17T23:18:58.094Z,98289.91
2023-05-17T23:21:25.709Z,98281.03
2023-05-17T23:23:53.581Z,98279.38
2023-05-17T23:26:22.045Z,98268.03
2023-05-17T23:28:50.617Z,98275.16
2023-05-17T23:31:18.179Z,98267.50
2023-05-17T23:33:45.746Z,98274.94
2023-05-17T23:36:13.311Z,98275.25
2023-05-17T23:38:41.057Z,98269.41
2023-05-17T23:41:11.512Z,98254.84
2023-05-17T23:43:39.055Z,98263.97
2023-05-17T23:46:06.804Z,98258.09
2023-05-17T23:48:34.348Z,98261.91
2023-05-17T23:51:01.945Z,98263.22
2023-05-17T23:53:29.508Z,98266.16
2023-05-17T23:55:57.034Z,98256.50
2023-05-17T23:58:24.678Z,98258.47
